KJCT

Details ICAO KJCT
Name KIMBLE CO
Region United States
Timezone America/Chicago (UTC-6.0)
Plans Departing 14
Arriving 11
Stats Elevation 1,749 ft / 533 m (AMSL)
Location 30.511065° -99.762294°
Runways 2
Magnetic Variation 4.951° E
Sunrise 2017-12-14 13:29:33 UTC / 2017-12-14 07:29:33 Local
Sunset 2017-12-14 23:40:58 UTC / 2017-12-14 17:40:58 Local
Advertisement - Login to hide

Runways

ID Width Length Bearing (true) Bearing (mag) Surface Threshold Offset Overrun Length
08 146 ft / 45 m 2,249 ft / 686 m 92.47° 87.52° Grass 0 ft / 0 m 0 ft / 0 m
17 75 ft / 23 m 5,016 ft / 1,529 m 180.24° 175.29° Asphalt 0 ft / 0 m 0 ft / 0 m
26 146 ft / 45 m 2,249 ft / 686 m 272.48° 267.53° Grass 0 ft / 0 m 0 ft / 0 m
35 75 ft / 23 m 5,016 ft / 1,529 m 0.24° 355.29° Asphalt 0 ft / 0 m 0 ft / 0 m

Map

Weather


0- 5 10 15 20 25 30 35+ Temperature / ° C

Clouds and Precipitation
Forecast for 2017-12-15 06:00 UTC. Updated 2 hours ago

Ground ~20,000 ft ~40,000 ft Winds

METAR

KJCT 150351Z AUTO 02012KT 10SM CLR 09/M03 A3018 RMK AO2 SLP206 T00941033

TAF

KJCT 142332Z 1500/1524 02008KT P6SM BKN250

Frequencies

Recorded 119.27 MHz ASOS
Unicom 122.80 MHz CTAF/UNICOM
Warning: Do not use this data for real-world aviation or navigation. No guarantee of current accuracy is given.